sensor_id;sensor_type;location;lat;lon;timestamp;pressure;altitude;pressure_sealevel;temperature;humidity
82293;BME280;71892;14.836;105.234;2024-02-23T00:00:06;99746.53;;;25.02;nan
82293;BME280;71892;14.836;105.234;2024-02-23T00:02:33;99752.50;;;25.10;nan
82293;BME280;71892;14.836;105.234;2024-02-23T00:04:59;99756.53;;;25.22;nan
82293;BME280;71892;14.836;105.234;2024-02-23T00:07:26;99763.31;;;25.32;nan
82293;BME280;71892;14.836;105.234;2024-02-23T00:09:52;99757.47;;;25.41;nan
82293;BME280;71892;14.836;105.234;2024-02-23T00:12:18;99764.25;;;25.51;nan
82293;BME280;71892;14.836;105.234;2024-02-23T00:14:45;99762.97;;;25.60;nan
82293;BME280;71892;14.836;105.234;2024-02-23T00:17:12;99774.16;;;25.72;nan
82293;BME280;71892;14.836;105.234;2024-02-23T00:19:38;99775.28;;;25.87;nan
82293;BME280;71892;14.836;105.234;2024-02-23T00:22:04;99778.34;;;26.17;nan
82293;BME280;71892;14.836;105.234;2024-02-23T00:24:31;99771.50;;;26.63;nan
82293;BME280;71892;14.836;105.234;2024-02-23T00:26:57;99771.03;;;27.08;nan
82293;BME280;71892;14.836;105.234;2024-02-23T00:29:24;99774.84;;;27.55;nan
82293;BME280;71892;14.836;105.234;2024-02-23T00:31:50;99784.25;;;27.98;nan
82293;BME280;71892;14.836;105.234;2024-02-23T00:34:16;99793.41;;;28.30;nan
82293;BME280;71892;14.836;105.234;2024-02-23T00:36:43;99777.50;;;28.68;nan
82293;BME280;71892;14.836;105.234;2024-02-23T00:39:12;99799.84;;;29.06;nan
82293;BME280;71892;14.836;105.234;2024-02-23T00:41:38;99798.41;;;29.45;nan
82293;BME280;71892;14.836;105.234;2024-02-23T00:44:05;99796.59;;;29.73;nan
82293;BME280;71892;14.836;105.234;2024-02-23T00:46:31;99800.94;;;30.06;nan
82293;BME280;71892;14.836;105.234;2024-02-23T00:48:58;99806.25;;;30.36;nan
82293;BME280;71892;14.836;105.234;2024-02-23T00:51:25;99809.09;;;30.62;nan
82293;BME280;71892;14.836;105.234;2024-02-23T00:53:52;99812.09;;;30.72;nan
82293;BME280;71892;14.836;105.234;2024-02-23T00:56:18;99820.38;;;30.85;nan
82293;BME280;71892;14.836;105.234;2024-02-23T00:58:45;99815.59;;;31.01;nan
82293;BME280;71892;14.836;105.234;2024-02-23T01:01:11;99826.47;;;31.29;nan
82293;BME280;71892;14.836;105.234;2024-02-23T01:03:38;99828.72;;;31.49;nan
82293;BME280;71892;14.836;105.234;2024-02-23T01:06:04;99817.97;;;31.59;nan
82293;BME280;71892;14.836;105.234;2024-02-23T01:08:31;99831.94;;;31.69;nan
82293;BME280;71892;14.836;105.234;2024-02-23T01:10:57;99835.56;;;31.82;nan
82293;BME280;71892;14.836;105.234;2024-02-23T01:13:23;99830.06;;;31.82;nan
82293;BME280;71892;14.836;105.234;2024-02-23T01:15:50;99828.97;;;31.72;nan
82293;BME280;71892;14.836;105.234;2024-02-23T01:18:16;99834.59;;;31.83;nan
82293;BME280;71892;14.836;105.234;2024-02-23T01:20:42;99837.56;;;31.92;nan
82293;BME280;71892;14.836;105.234;2024-02-23T01:23:09;99831.50;;;32.25;nan
82293;BME280;71892;14.836;105.234;2024-02-23T01:25:36;99844.97;;;32.54;nan
82293;BME280;71892;14.836;105.234;2024-02-23T01:28:03;99816.09;;;32.72;nan
82293;BME280;71892;14.836;105.234;2024-02-23T01:30:30;99845.81;;;32.80;nan
82293;BME280;71892;14.836;105.234;2024-02-23T01:32:56;99853.72;;;32.84;nan
82293;BME280;71892;14.836;105.234;2024-02-23T01:35:22;99843.69;;;32.83;nan
82293;BME280;71892;14.836;105.234;2024-02-23T01:37:49;99847.75;;;32.90;nan
82293;BME280;71892;14.836;105.234;2024-02-23T01:40:15;99849.97;;;33.09;nan
82293;BME280;71892;14.836;105.234;2024-02-23T01:42:41;99846.09;;;33.11;nan
82293;BME280;71892;14.836;105.234;2024-02-23T01:45:08;99856.47;;;33.21;nan
82293;BME280;71892;14.836;105.234;2024-02-23T01:47:34;99844.06;;;33.26;nan
82293;BME280;71892;14.836;105.234;2024-02-23T01:50:01;99849.97;;;33.33;nan
82293;BME280;71892;14.836;105.234;2024-02-23T01:52:29;99858.00;;;33.36;nan
82293;BME280;71892;14.836;105.234;2024-02-23T01:54:56;99858.53;;;33.41;nan
82293;BME280;71892;14.836;105.234;2024-02-23T01:57:23;99863.19;;;33.51;nan
82293;BME280;71892;14.836;105.234;2024-02-23T01:59:50;99862.69;;;33.81;nan
82293;BME280;71892;14.836;105.234;2024-02-23T02:02:16;99870.50;;;34.10;nan
82293;BME280;71892;14.836;105.234;2024-02-23T02:04:43;99872.06;;;34.25;nan
82293;BME280;71892;14.836;105.234;2024-02-23T02:07:09;99873.56;;;34.51;nan
82293;BME280;71892;14.836;105.234;2024-02-23T02:09:36;99871.91;;;34.82;nan
82293;BME280;71892;14.836;105.234;2024-02-23T02:12:04;99872.88;;;35.03;nan
82293;BME280;71892;14.836;105.234;2024-02-23T02:14:31;99875.19;;;34.87;nan
82293;BME280;71892;14.836;105.234;2024-02-23T02:16:59;99873.28;;;34.99;nan
82293;BME280;71892;14.836;105.234;2024-02-23T02:19:25;99881.16;;;35.03;nan
82293;BME280;71892;14.836;105.234;2024-02-23T02:21:52;99874.88;;;35.23;nan
82293;BME280;71892;14.836;105.234;2024-02-23T02:24:18;99874.56;;;35.38;nan
82293;BME280;71892;14.836;105.234;2024-02-23T02:26:49;99877.81;;;35.43;nan
82293;BME280;71892;14.836;105.234;2024-02-23T02:29:16;99877.97;;;35.30;nan
82293;BME280;71892;14.836;105.234;2024-02-23T02:31:42;99872.97;;;35.24;nan
82293;BME280;71892;14.836;105.234;2024-02-23T02:34:08;99877.94;;;35.41;nan
82293;BME280;71892;14.836;105.234;2024-02-23T02:36:38;99885.84;;;35.35;nan
82293;BME280;71892;14.836;105.234;2024-02-23T02:39:05;99878.75;;;35.21;nan
82293;BME280;71892;14.836;105.234;2024-02-23T02:41:33;99892.56;;;35.21;nan
82293;BME280;71892;14.836;105.234;2024-02-23T02:43:59;99882.16;;;35.13;nan
82293;BME280;71892;14.836;105.234;2024-02-23T02:46:25;99887.94;;;35.53;nan
82293;BME280;71892;14.836;105.234;2024-02-23T02:48:52;99876.78;;;35.64;nan
82293;BME280;71892;14.836;105.234;2024-02-23T02:51:18;99883.63;;;35.60;nan
82293;BME280;71892;14.836;105.234;2024-02-23T02:53:44;99881.22;;;35.88;nan
82293;BME280;71892;14.836;105.234;2024-02-23T02:56:11;99879.13;;;36.22;nan
82293;BME280;71892;14.836;105.234;2024-02-23T02:58:37;99876.00;;;36.36;nan
82293;BME280;71892;14.836;105.234;2024-02-23T03:01:03;99876.97;;;36.04;nan
82293;BME280;71892;14.836;105.234;2024-02-23T03:03:30;99881.28;;;36.18;nan
82293;BME280;71892;14.836;105.234;2024-02-23T03:05:56;99886.28;;;36.24;nan
82293;BME280;71892;14.836;105.234;2024-02-23T03:08:22;99886.22;;;36.35;nan
82293;BME280;71892;14.836;105.234;2024-02-23T03:10:49;99872.19;;;36.37;nan
82293;BME280;71892;14.836;105.234;2024-02-23T03:13:15;99865.16;;;36.53;nan
82293;BME280;71892;14.836;105.234;2024-02-23T03:15:41;99866.97;;;36.64;nan
82293;BME280;71892;14.836;105.234;2024-02-23T03:18:08;99871.06;;;36.39;nan
82293;BME280;71892;14.836;105.234;2024-02-23T03:20:35;99874.03;;;36.27;nan
82293;BME280;71892;14.836;105.234;2024-02-23T03:23:02;99864.44;;;36.21;nan
82293;BME280;71892;14.836;105.234;2024-02-23T03:25:29;99856.78;;;36.13;nan
82293;BME280;71892;14.836;105.234;2024-02-23T03:27:55;99856.34;;;36.39;nan
82293;BME280;71892;14.836;105.234;2024-02-23T03:30:22;99859.16;;;36.48;nan
82293;BME280;71892;14.836;105.234;2024-02-23T03:32:48;99858.28;;;36.57;nan
82293;BME280;71892;14.836;105.234;2024-02-23T03:35:15;99848.22;;;36.56;nan
82293;BME280;71892;14.836;105.234;2024-02-23T03:37:41;99846.53;;;36.65;nan
82293;BME280;71892;14.836;105.234;2024-02-23T03:40:08;99849.09;;;36.57;nan
82293;BME280;71892;14.836;105.234;2024-02-23T03:42:36;99765.09;;;36.56;nan
82293;BME280;71892;14.836;105.234;2024-02-23T03:45:02;99844.19;;;36.61;nan
82293;BME280;71892;14.836;105.234;2024-02-23T03:47:29;99838.97;;;36.67;nan
82293;BME280;71892;14.836;105.234;2024-02-23T03:49:55;99834.91;;;36.81;nan
82293;BME280;71892;14.836;105.234;2024-02-23T03:52:31;99826.91;;;36.87;nan
82293;BME280;71892;14.836;105.234;2024-02-23T03:54:57;99823.84;;;37.00;nan
82293;BME280;71892;14.836;105.234;2024-02-23T03:57:23;99820.69;;;37.14;nan
82293;BME280;71892;14.836;105.234;2024-02-23T03:59:56;99823.28;;;36.96;nan
82293;BME280;71892;14.836;105.234;2024-02-23T04:02:23;99811.16;;;36.88;nan
82293;BME280;71892;14.836;105.234;2024-02-23T04:04:49;99792.63;;;36.88;nan
82293;BME280;71892;14.836;105.234;2024-02-23T04:07:16;99798.78;;;37.11;nan
82293;BME280;71892;14.836;105.234;2024-02-23T04:09:42;99794.41;;;37.18;nan
82293;BME280;71892;14.836;105.234;2024-02-23T04:12:08;99786.47;;;36.85;nan
82293;BME280;71892;14.836;105.234;2024-02-23T04:14:35;99782.97;;;36.73;nan
82293;BME280;71892;14.836;105.234;2024-02-23T04:17:03;99785.75;;;36.73;nan
82293;BME280;71892;14.836;105.234;2024-02-23T04:19:29;99785.19;;;36.79;nan
82293;BME280;71892;14.836;105.234;2024-02-23T04:21:55;99777.44;;;36.73;nan
82293;BME280;71892;14.836;105.234;2024-02-23T04:24:22;99778.28;;;36.64;nan
82293;BME280;71892;14.836;105.234;2024-02-23T04:26:48;99766.63;;;36.80;nan
82293;BME280;71892;14.836;105.234;2024-02-23T04:29:14;99759.94;;;36.92;nan
82293;BME280;71892;14.836;105.234;2024-02-23T04:31:41;99743.63;;;37.27;nan
82293;BME280;71892;14.836;105.234;2024-02-23T04:34:07;99753.97;;;37.35;nan
82293;BME280;71892;14.836;105.234;2024-02-23T04:36:33;99739.53;;;37.31;nan
82293;BME280;71892;14.836;105.234;2024-02-23T04:39:00;99744.47;;;37.47;nan
82293;BME280;71892;14.836;105.234;2024-02-23T04:41:26;99736.00;;;37.29;nan
82293;BME280;71892;14.836;105.234;2024-02-23T04:43:52;99733.38;;;37.18;nan
82293;BME280;71892;14.836;105.234;2024-02-23T04:46:24;99720.81;;;37.33;nan
82293;BME280;71892;14.836;105.234;2024-02-23T04:48:50;99732.50;;;37.56;nan
82293;BME280;71892;14.836;105.234;2024-02-23T04:53:43;99717.81;;;37.73;nan
82293;BME280;71892;14.836;105.234;2024-02-23T04:56:12;99713.50;;;37.52;nan
82293;BME280;71892;14.836;105.234;2024-02-23T04:58:45;99704.28;;;37.61;nan
82293;BME280;71892;14.836;105.234;2024-02-23T05:01:11;99697.13;;;37.49;nan
82293;BME280;71892;14.836;105.234;2024-02-23T05:03:37;99689.81;;;37.57;nan
82293;BME280;71892;14.836;105.234;2024-02-23T05:06:04;99687.22;;;37.56;nan
82293;BME280;71892;14.836;105.234;2024-02-23T05:08:31;99669.25;;;37.87;nan
82293;BME280;71892;14.836;105.234;2024-02-23T05:10:57;99675.34;;;38.27;nan
82293;BME280;71892;14.836;105.234;2024-02-23T05:13:24;99643.47;;;38.49;nan
82293;BME280;71892;14.836;105.234;2024-02-23T05:15:50;99675.03;;;38.31;nan
82293;BME280;71892;14.836;105.234;2024-02-23T05:18:17;99654.69;;;38.12;nan
82293;BME280;71892;14.836;105.234;2024-02-23T05:20:43;99652.84;;;37.10;nan
82293;BME280;71892;14.836;105.234;2024-02-23T05:23:09;99643.19;;;36.47;nan
82293;BME280;71892;14.836;105.234;2024-02-23T05:25:36;99624.25;;;36.42;nan
82293;BME280;71892;14.836;105.234;2024-02-23T05:28:02;99635.63;;;36.97;nan
82293;BME280;71892;14.836;105.234;2024-02-23T05:30:30;99632.59;;;37.47;nan
82293;BME280;71892;14.836;105.234;2024-02-23T05:32:57;99621.63;;;36.89;nan
82293;BME280;71892;14.836;105.234;2024-02-23T05:35:27;99617.81;;;36.90;nan
82293;BME280;71892;14.836;105.234;2024-02-23T05:37:53;99608.50;;;36.81;nan
82293;BME280;71892;14.836;105.234;2024-02-23T05:40:21;99612.59;;;36.87;nan
82293;BME280;71892;14.836;105.234;2024-02-23T05:42:47;99609.59;;;37.27;nan
82293;BME280;71892;14.836;105.234;2024-02-23T05:45:13;99603.00;;;37.74;nan
82293;BME280;71892;14.836;105.234;2024-02-23T05:47:40;99599.78;;;37.97;nan
82293;BME280;71892;14.836;105.234;2024-02-23T05:50:08;99592.00;;;38.27;nan
82293;BME280;71892;14.836;105.234;2024-02-23T05:52:37;99598.31;;;38.47;nan
82293;BME280;71892;14.836;105.234;2024-02-23T05:55:05;99594.38;;;38.22;nan
82293;BME280;71892;14.836;105.234;2024-02-23T05:57:31;99586.41;;;37.65;nan
82293;BME280;71892;14.836;105.234;2024-02-23T05:59:58;99580.66;;;36.83;nan
82293;BME280;71892;14.836;105.234;2024-02-23T06:02:24;99574.81;;;36.28;nan
82293;BME280;71892;14.836;105.234;2024-02-23T06:04:51;99574.03;;;35.97;nan
82293;BME280;71892;14.836;105.234;2024-02-23T06:07:17;99571.91;;;36.58;nan
82293;BME280;71892;14.836;105.234;2024-02-23T06:09:43;99563.59;;;36.68;nan
82293;BME280;71892;14.836;105.234;2024-02-23T06:12:10;99562.03;;;37.22;nan
82293;BME280;71892;14.836;105.234;2024-02-23T06:14:36;99556.91;;;37.27;nan
82293;BME280;71892;14.836;105.234;2024-02-23T06:17:03;99549.53;;;36.98;nan
82293;BME280;71892;14.836;105.234;2024-02-23T06:19:29;99545.22;;;37.23;nan
82293;BME280;71892;14.836;105.234;2024-02-23T06:21:56;99536.69;;;37.07;nan
82293;BME280;71892;14.836;105.234;2024-02-23T06:24:22;99532.19;;;37.33;nan
82293;BME280;71892;14.836;105.234;2024-02-23T06:26:51;99534.50;;;37.38;nan
82293;BME280;71892;14.836;105.234;2024-02-23T06:29:18;99522.09;;;36.95;nan
82293;BME280;71892;14.836;105.234;2024-02-23T06:31:44;99521.34;;;36.18;nan
82293;BME280;71892;14.836;105.234;2024-02-23T06:34:15;99502.91;;;35.69;nan
82293;BME280;71892;14.836;105.234;2024-02-23T06:36:42;99504.38;;;35.83;nan
82293;BME280;71892;14.836;105.234;2024-02-23T06:39:08;99507.63;;;36.36;nan
82293;BME280;71892;14.836;105.234;2024-02-23T06:41:34;99508.69;;;36.91;nan
82293;BME280;71892;14.836;105.234;2024-02-23T06:44:01;99497.88;;;37.07;nan
82293;BME280;71892;14.836;105.234;2024-02-23T06:46:27;99499.50;;;37.37;nan
82293;BME280;71892;14.836;105.234;2024-02-23T06:48:53;99491.22;;;37.55;nan
82293;BME280;71892;14.836;105.234;2024-02-23T06:51:20;99478.31;;;37.63;nan
82293;BME280;71892;14.836;105.234;2024-02-23T06:53:46;99476.34;;;37.73;nan
82293;BME280;71892;14.836;105.234;2024-02-23T06:56:13;99476.66;;;37.88;nan
82293;BME280;71892;14.836;105.234;2024-02-23T06:58:40;99475.84;;;37.96;nan
82293;BME280;71892;14.836;105.234;2024-02-23T07:01:06;99474.28;;;37.93;nan
82293;BME280;71892;14.836;105.234;2024-02-23T07:03:37;99466.56;;;38.14;nan
82293;BME280;71892;14.836;105.234;2024-02-23T07:06:03;99461.69;;;38.16;nan
82293;BME280;71892;14.836;105.234;2024-02-23T07:08:30;99466.03;;;38.37;nan
82293;BME280;71892;14.836;105.234;2024-02-23T07:10:56;99447.94;;;38.33;nan
82293;BME280;71892;14.836;105.234;2024-02-23T07:13:22;99448.56;;;38.44;nan
82293;BME280;71892;14.836;105.234;2024-02-23T07:15:49;99438.69;;;38.24;nan
82293;BME280;71892;14.836;105.234;2024-02-23T07:18:15;99442.25;;;38.16;nan
82293;BME280;71892;14.836;105.234;2024-02-23T07:20:42;99433.31;;;38.31;nan
82293;BME280;71892;14.836;105.234;2024-02-23T07:23:08;99426.13;;;38.20;nan
82293;BME280;71892;14.836;105.234;2024-02-23T07:25:35;99427.44;;;37.90;nan
82293;BME280;71892;14.836;105.234;2024-02-23T07:28:01;99419.22;;;37.53;nan
82293;BME280;71892;14.836;105.234;2024-02-23T07:30:28;99403.97;;;37.22;nan
82293;BME280;71892;14.836;105.234;2024-02-23T07:32:54;99404.03;;;37.30;nan
82293;BME280;71892;14.836;105.234;2024-02-23T07:35:24;99411.34;;;37.31;nan
82293;BME280;71892;14.836;105.234;2024-02-23T07:37:50;99399.97;;;37.52;nan
82293;BME280;71892;14.836;105.234;2024-02-23T07:40:16;99407.28;;;37.70;nan
82293;BME280;71892;14.836;105.234;2024-02-23T07:42:43;99388.19;;;37.22;nan
82293;BME280;71892;14.836;105.234;2024-02-23T07:45:09;99392.31;;;37.36;nan
82293;BME280;71892;14.836;105.234;2024-02-23T07:47:36;99385.03;;;37.35;nan
82293;BME280;71892;14.836;105.234;2024-02-23T07:50:03;99387.94;;;37.33;nan
82293;BME280;71892;14.836;105.234;2024-02-23T07:52:29;99373.22;;;37.06;nan
82293;BME280;71892;14.836;105.234;2024-02-23T07:54:56;99365.91;;;37.14;nan
82293;BME280;71892;14.836;105.234;2024-02-23T07:57:23;99375.56;;;37.10;nan
82293;BME280;71892;14.836;105.234;2024-02-23T07:59:50;99365.75;;;37.16;nan
82293;BME280;71892;14.836;105.234;2024-02-23T08:02:18;99365.81;;;37.24;nan
82293;BME280;71892;14.836;105.234;2024-02-23T08:04:44;99365.03;;;37.14;nan
82293;BME280;71892;14.836;105.234;2024-02-23T08:07:13;99350.16;;;37.05;nan
82293;BME280;71892;14.836;105.234;2024-02-23T08:09:40;99354.13;;;37.03;nan
82293;BME280;71892;14.836;105.234;2024-02-23T08:12:07;99347.84;;;36.83;nan
82293;BME280;71892;14.836;105.234;2024-02-23T08:14:33;99351.78;;;36.80;nan
82293;BME280;71892;14.836;105.234;2024-02-23T08:17:00;99354.25;;;36.83;nan
82293;BME280;71892;14.836;105.234;2024-02-23T08:19:26;99348.47;;;36.94;nan
82293;BME280;71892;14.836;105.234;2024-02-23T08:21:52;99341.72;;;36.79;nan
82293;BME280;71892;14.836;105.234;2024-02-23T08:24:19;99339.44;;;36.65;nan
82293;BME280;71892;14.836;105.234;2024-02-23T08:26:45;99331.75;;;36.59;nan
82293;BME280;71892;14.836;105.234;2024-02-23T08:29:11;99337.56;;;36.56;nan
82293;BME280;71892;14.836;105.234;2024-02-23T08:31:38;99321.31;;;36.43;nan
82293;BME280;71892;14.836;105.234;2024-02-23T08:34:04;99323.09;;;36.35;nan
82293;BME280;71892;14.836;105.234;2024-02-23T08:36:31;99323.84;;;36.27;nan
82293;BME280;71892;14.836;105.234;2024-02-23T08:38:57;99332.47;;;36.24;nan
82293;BME280;71892;14.836;105.234;2024-02-23T08:41:23;99332.16;;;36.08;nan
82293;BME280;71892;14.836;105.234;2024-02-23T08:43:50;99324.31;;;36.13;nan
82293;BME280;71892;14.836;105.234;2024-02-23T08:46:16;99328.53;;;36.07;nan
82293;BME280;71892;14.836;105.234;2024-02-23T08:48:43;99330.88;;;36.02;nan
82293;BME280;71892;14.836;105.234;2024-02-23T08:51:09;99328.34;;;35.72;nan
82293;BME280;71892;14.836;105.234;2024-02-23T08:53:35;99330.47;;;35.59;nan
82293;BME280;71892;14.836;105.234;2024-02-23T08:56:02;99330.47;;;35.59;nan
82293;BME280;71892;14.836;105.234;2024-02-23T08:58:28;99320.03;;;35.53;nan
82293;BME280;71892;14.836;105.234;2024-02-23T09:00:55;99325.81;;;35.50;nan
82293;BME280;71892;14.836;105.234;2024-02-23T09:03:21;99331.34;;;35.50;nan
82293;BME280;71892;14.836;105.234;2024-02-23T09:05:47;99320.16;;;35.51;nan
82293;BME280;71892;14.836;105.234;2024-02-23T09:08:14;99318.13;;;35.53;nan
82293;BME280;71892;14.836;105.234;2024-02-23T09:10:43;99324.81;;;35.60;nan
82293;BME280;71892;14.836;105.234;2024-02-23T09:13:11;99320.59;;;35.56;nan
82293;BME280;71892;14.836;105.234;2024-02-23T09:15:37;99319.84;;;35.45;nan
82293;BME280;71892;14.836;105.234;2024-02-23T09:18:04;99313.19;;;35.38;nan
82293;BME280;71892;14.836;105.234;2024-02-23T09:20:30;99319.84;;;35.45;nan
82293;BME280;71892;14.836;105.234;2024-02-23T09:22:57;99327.00;;;35.47;nan
82293;BME280;71892;14.836;105.234;2024-02-23T09:25:23;99324.38;;;35.55;nan
82293;BME280;71892;14.836;105.234;2024-02-23T09:27:49;99329.19;;;35.44;nan
82293;BME280;71892;14.836;105.234;2024-02-23T09:30:16;99329.91;;;35.36;nan
82293;BME280;71892;14.836;105.234;2024-02-23T09:32:42;99323.94;;;35.21;nan
82293;BME280;71892;14.836;105.234;2024-02-23T09:35:10;99310.63;;;35.15;nan
82293;BME280;71892;14.836;105.234;2024-02-23T09:37:36;99317.34;;;35.03;nan
82293;BME280;71892;14.836;105.234;2024-02-23T09:40:03;99323.28;;;34.99;nan
82293;BME280;71892;14.836;105.234;2024-02-23T09:42:29;99331.72;;;34.97;nan
82293;BME280;71892;14.836;105.234;2024-02-23T09:44:59;99332.44;;;34.89;nan
82293;BME280;71892;14.836;105.234;2024-02-23T09:47:28;99334.13;;;34.81;nan
82293;BME280;71892;14.836;105.234;2024-02-23T09:49:55;99330.09;;;34.75;nan
82293;BME280;71892;14.836;105.234;2024-02-23T09:54:51;99309.56;;;34.68;nan
82293;BME280;71892;14.836;105.234;2024-02-23T09:57:18;99331.44;;;34.60;nan
82293;BME280;71892;14.836;105.234;2024-02-23T09:59:45;99328.78;;;34.49;nan
82293;BME280;71892;14.836;105.234;2024-02-23T10:02:15;99339.25;;;34.45;nan
82293;BME280;71892;14.836;105.234;2024-02-23T10:04:43;99334.13;;;34.41;nan
82293;BME280;71892;14.836;105.234;2024-02-23T10:07:12;99334.41;;;34.38;nan
82293;BME280;71892;14.836;105.234;2024-02-23T10:09:41;99334.81;;;34.33;nan
82293;BME280;71892;14.836;105.234;2024-02-23T10:12:07;99334.81;;;34.33;nan
82293;BME280;71892;14.836;105.234;2024-02-23T10:14:34;99331.00;;;34.25;nan
82293;BME280;71892;14.836;105.234;2024-02-23T10:17:00;99339.06;;;34.17;nan
82293;BME280;71892;14.836;105.234;2024-02-23T10:19:28;99340.31;;;34.03;nan
82293;BME280;71892;14.836;105.234;2024-02-23T10:21:56;99264.56;;;33.86;nan
82293;BME280;71892;14.836;105.234;2024-02-23T10:24:28;99348.66;;;33.71;nan
82293;BME280;71892;14.836;105.234;2024-02-23T10:26:55;99350.69;;;33.58;nan
82293;BME280;71892;14.836;105.234;2024-02-23T10:29:21;99344.84;;;33.51;nan
82293;BME280;71892;14.836;105.234;2024-02-23T10:31:49;99347.50;;;33.42;nan
82293;BME280;71892;14.836;105.234;2024-02-23T10:34:19;99357.25;;;33.25;nan
82293;BME280;71892;14.836;105.234;2024-02-23T10:36:46;99343.84;;;33.21;nan
82293;BME280;71892;14.836;105.234;2024-02-23T10:39:17;99350.25;;;33.21;nan
82293;BME280;71892;14.836;105.234;2024-02-23T10:42:03;99323.81;;;33.07;nan
82293;BME280;71892;14.836;105.234;2024-02-23T10:44:30;99344.66;;;32.89;nan
82293;BME280;71892;14.836;105.234;2024-02-23T10:46:58;99353.44;;;32.61;nan
82293;BME280;71892;14.836;105.234;2024-02-23T10:51:52;99357.31;;;32.14;nan
82293;BME280;71892;14.836;105.234;2024-02-23T10:54:20;99357.88;;;31.95;nan
82293;BME280;71892;14.836;105.234;2024-02-23T10:56:48;99358.06;;;31.81;nan
82293;BME280;71892;14.836;105.234;2024-02-23T10:59:16;99363.94;;;31.65;nan
82293;BME280;71892;14.836;105.234;2024-02-23T11:01:52;99356.84;;;31.50;nan
82293;BME280;71892;14.836;105.234;2024-02-23T11:04:22;99358.03;;;31.35;nan
82293;BME280;71892;14.836;105.234;2024-02-23T11:06:56;99368.94;;;31.24;nan
82293;BME280;71892;14.836;105.234;2024-02-23T11:09:25;99375.75;;;31.07;nan
82293;BME280;71892;14.836;105.234;2024-02-23T11:11:55;99372.91;;;30.96;nan
82293;BME280;71892;14.836;105.234;2024-02-23T11:14:32;99373.16;;;30.80;nan
82293;BME280;71892;14.836;105.234;2024-02-23T11:16:58;99377.72;;;30.69;nan
82293;BME280;71892;14.836;105.234;2024-02-23T11:19:37;99380.13;;;30.60;nan
82293;BME280;71892;14.836;105.234;2024-02-23T11:24:31;99383.97;;;30.45;nan
82293;BME280;71892;14.836;105.234;2024-02-23T11:27:01;99393.88;;;30.35;nan
82293;BME280;71892;14.836;105.234;2024-02-23T11:29:37;99393.66;;;30.26;nan
82293;BME280;71892;14.836;105.234;2024-02-23T11:32:15;99399.56;;;30.19;nan
82293;BME280;71892;14.836;105.234;2024-02-23T11:34:53;99401.00;;;30.12;nan
82293;BME280;71892;14.836;105.234;2024-02-23T11:37:21;99408.00;;;30.04;nan
82293;BME280;71892;14.836;105.234;2024-02-23T11:39:48;99398.03;;;29.90;nan
82293;BME280;71892;14.836;105.234;2024-02-23T11:42:14;99406.97;;;29.79;nan
82293;BME280;71892;14.836;105.234;2024-02-23T11:47:07;99413.56;;;29.77;nan
82293;BME280;71892;14.836;105.234;2024-02-23T11:49:34;99418.25;;;29.75;nan
82293;BME280;71892;14.836;105.234;2024-02-23T11:52:01;99426.47;;;29.75;nan
82293;BME280;71892;14.836;105.234;2024-02-23T11:54:27;99427.44;;;29.74;nan
82293;BME280;71892;14.836;105.234;2024-02-23T11:56:53;99426.88;;;29.69;nan
82293;BME280;71892;14.836;105.234;2024-02-23T11:59:20;99430.50;;;29.57;nan
82293;BME280;71892;14.836;105.234;2024-02-23T12:01:47;99432.19;;;29.45;nan
82293;BME280;71892;14.836;105.234;2024-02-23T12:04:14;99438.28;;;29.36;nan
82293;BME280;71892;14.836;105.234;2024-02-23T12:06:44;99433.41;;;29.27;nan
82293;BME280;71892;14.836;105.234;2024-02-23T12:09:12;99447.06;;;29.14;nan
82293;BME280;71892;14.836;105.234;2024-02-23T12:11:40;99445.31;;;28.99;nan
82293;BME280;71892;14.836;105.234;2024-02-23T12:14:07;99451.22;;;28.79;nan
82293;BME280;71892;14.836;105.234;2024-02-23T12:16:37;99452.09;;;28.65;nan
82293;BME280;71892;14.836;105.234;2024-02-23T12:19:08;99459.78;;;28.59;nan
82293;BME280;71892;14.836;105.234;2024-02-23T12:21:35;99466.75;;;28.50;nan
82293;BME280;71892;14.836;105.234;2024-02-23T12:24:05;99475.25;;;28.45;nan
82293;BME280;71892;14.836;105.234;2024-02-23T12:26:34;99478.84;;;28.46;nan
82293;BME280;71892;14.836;105.234;2024-02-23T12:29:04;99477.09;;;28.45;nan
82293;BME280;71892;14.836;105.234;2024-02-23T12:31:34;99473.28;;;28.47;nan
82293;BME280;71892;14.836;105.234;2024-02-23T12:34:00;99481.47;;;28.47;nan
82293;BME280;71892;14.836;105.234;2024-02-23T12:38:54;99489.00;;;28.44;nan
82293;BME280;71892;14.836;105.234;2024-02-23T12:41:21;99486.66;;;28.38;nan
82293;BME280;71892;14.836;105.234;2024-02-23T12:43:48;99479.53;;;28.35;nan
82293;BME280;71892;14.836;105.234;2024-02-23T12:46:14;99477.09;;;28.31;nan
82293;BME280;71892;14.836;105.234;2024-02-23T12:48:41;99479.09;;;28.27;nan
82293;BME280;71892;14.836;105.234;2024-02-23T12:51:08;99483.81;;;28.25;nan
82293;BME280;71892;14.836;105.234;2024-02-23T12:53:43;99484.88;;;28.23;nan
82293;BME280;71892;14.836;105.234;2024-02-23T12:56:11;99493.84;;;28.25;nan
82293;BME280;71892;14.836;105.234;2024-02-23T12:58:40;99488.47;;;28.23;nan
82293;BME280;71892;14.836;105.234;2024-02-23T13:03:35;99497.44;;;28.11;nan
82293;BME280;71892;14.836;105.234;2024-02-23T13:06:02;99499.91;;;28.00;nan
82293;BME280;71892;14.836;105.234;2024-02-23T13:08:29;99487.78;;;27.90;nan
82293;BME280;71892;14.836;105.234;2024-02-23T13:10:56;99504.81;;;27.79;nan
82293;BME280;71892;14.836;105.234;2024-02-23T13:13:23;99493.28;;;27.74;nan
82293;BME280;71892;14.836;105.234;2024-02-23T13:15:54;99516.50;;;27.67;nan